Alder, Washington
Current Conditions -  °F | °C
As of 8:58 PM on Wednesday 22 Oct 2014 (Local Time) from KGRF Reporting Station
Drizzle Drizzle  
Wind Chill: 56°   Ceiling: 12000
Heat Index: 56°   Visibility: 10mi
Dew Point: 54°   Wind: 14mph
Humidity: 90%   Direction: 170°S
Pressure: 29.63"   Gusts: 20mph
Location:  46.8687°N, 122.208°W
Report Text: KGRF 230358Z AUTO 17012G17KT 10SM DZ FEW041 SCT080 BKN120 14/12 A2963 RMK AO2 PK WND 16027/32 SLP037 P0000 T01360120 $
Loading
Personal Weather Stations






























Interactive Weather Map
Tropical Storm Tracking
New forecast layout! Learn more

10-Day Weather Forecast

Advertisements
Track Severe Weather on mobile